Time;durP1;ratioP1;P1;durP2;ratioP2;P2;SDS_P1;SDS_P2;PMS_P1;PMS_P2;Temp;Humidity;BMP_temperature;BMP_pressure;BME280_temperature;BME280_humidity;BME280_pressure;Samples;Min_cycle;Max_cycle;Signal;HPM_P1;HPM_P2
2022/02/14 00:02:08;;;;;;;5.40;2.15;;;;;;;;;;5115480;28;20029;-69
2022/02/14 00:04:34;;;;;;;7.38;2.35;;;;;;;;;;5115776;28;20032;-64
2022/02/14 00:07:00;;;;;;;10.63;2.35;;;;;;;;;;5115934;28;20071;-70
2022/02/14 00:09:26;;;;;;;5.72;2.22;;;;;;;;;;5115921;28;20023;-70
2022/02/14 00:11:53;;;;;;;4.82;2.10;;;;;;;;;;5101185;27;20457;-67
2022/02/14 00:14:20;;;;;;;7.85;2.38;;;;;;;;;;5117720;27;20023;-72
2022/02/14 00:16:46;;;;;;;7.75;2.28;;;;;;;;;;5118265;27;20027;-65
2022/02/14 00:19:11;;;;;;;6.07;2.22;;;;;;;;;;5136484;27;20343;-66
2022/02/14 00:21:38;;;;;;;8.80;2.10;;;;;;;;;;5136025;27;20022;-73
2022/02/14 00:24:06;;;;;;;5.40;2.22;;;;;;;;;;5137087;27;20034;-70
2022/02/14 00:26:32;;;;;;;8.98;2.42;;;;;;;;;;5118613;27;20051;-71
2022/02/14 00:28:58;;;;;;;7.20;2.42;;;;;;;;;;5115713;28;20424;-71
2022/02/14 00:31:24;;;;;;;6.60;1.95;;;;;;;;;;5097553;28;20447;-70
2022/02/14 00:33:50;;;;;;;4.47;1.98;;;;;;;;;;5117284;27;20019;-71
2022/02/14 00:36:16;;;;;;;6.57;2.58;;;;;;;;;;5150190;27;20031;-69
2022/02/14 00:38:42;;;;;;;5.38;2.30;;;;;;;;;;5136408;27;20029;-71
2022/02/14 00:41:08;;;;;;;8.13;2.22;;;;;;;;;;5136188;27;20035;-70
2022/02/14 00:43:34;;;;;;;3.95;1.95;;;;;;;;;;5120365;27;20463;-64
2022/02/14 00:46:00;;;;;;;5.95;2.05;;;;;;;;;;5115371;28;20035;-68
2022/02/14 00:48:26;;;;;;;8.88;2.58;;;;;;;;;;5115036;28;20032;-65
2022/02/14 00:50:52;;;;;;;3.80;2.00;;;;;;;;;;5145994;27;20517;-65
2022/02/14 00:53:19;;;;;;;5.10;2.17;;;;;;;;;;5119416;27;20114;-71
2022/02/14 00:55:45;;;;;;;3.17;2.00;;;;;;;;;;5114679;28;20210;-65
2022/02/14 00:58:14;;;;;;;4.82;2.10;;;;;;;;;;5096350;28;20609;-70
2022/02/14 01:00:40;;;;;;;6.03;2.20;;;;;;;;;;5114761;28;20039;-66
2022/02/14 01:03:06;;;;;;;3.55;2.35;;;;;;;;;;5114345;28;20532;-67
2022/02/14 01:05:32;;;;;;;5.25;1.90;;;;;;;;;;5127115;27;20153;-66
2022/02/14 01:07:59;;;;;;;6.40;2.53;;;;;;;;;;5122041;27;20115;-66
2022/02/14 01:10:25;;;;;;;6.72;2.05;;;;;;;;;;5114554;28;20055;-66
2022/02/14 01:12:51;;;;;;;4.80;2.13;;;;;;;;;;5114438;28;20505;-71
2022/02/14 01:15:17;;;;;;;4.25;2.08;;;;;;;;;;5114670;28;20023;-65
2022/02/14 01:17:43;;;;;;;6.15;2.15;;;;;;;;;;5114898;28;20027;-68
2022/02/14 01:20:11;;;;;;;4.93;2.30;;;;;;;;;;5115116;28;20137;-69
2022/02/14 01:22:37;;;;;;;7.97;2.55;;;;;;;;;;5127150;27;20026;-72
2022/02/14 01:25:04;;;;;;;8.75;2.55;;;;;;;;;;5146401;27;20020;-69
2022/02/14 01:27:30;;;;;;;8.88;2.25;;;;;;;;;;5113696;28;20104;-63
2022/02/14 01:29:56;;;;;;;6.25;2.20;;;;;;;;;;5114912;28;20020;-72
2022/02/14 01:32:23;;;;;;;6.32;2.20;;;;;;;;;;5114989;28;20053;-72
2022/02/14 01:34:53;;;;;;;4.93;2.17;;;;;;;;;;5114008;28;20067;-65
2022/02/14 01:37:19;;;;;;;5.22;2.15;;;;;;;;;;5097666;27;20612;-67
2022/02/14 01:39:45;;;;;;;3.90;2.03;;;;;;;;;;5132079;27;20470;-64
2022/02/14 01:42:11;;;;;;;7.30;2.25;;;;;;;;;;5114196;28;20728;-67
2022/02/14 01:44:42;;;;;;;6.03;2.20;;;;;;;;;;5114263;28;20028;-64
2022/02/14 01:47:18;;;;;;;4.53;2.13;;;;;;;;;;5114175;28;20118;-65
2022/02/14 01:49:44;;;;;;;5.32;2.20;;;;;;;;;;5113954;28;20463;-65
2022/02/14 01:52:11;;;;;;;8.30;2.25;;;;;;;;;;5113787;28;20035;-65
2022/02/14 01:54:41;;;;;;;5.88;2.40;;;;;;;;;;5128552;27;20762;-70
2022/02/14 01:57:10;;;;;;;8.00;2.00;;;;;;;;;;5134665;27;20034;-71
2022/02/14 01:59:36;;;;;;;15.13;2.72;;;;;;;;;;5134412;27;20027;-66
2022/02/14 02:02:04;;;;;;;7.10;2.42;;;;;;;;;;5133840;27;20030;-59
2022/02/14 02:04:30;;;;;;;4.43;2.08;;;;;;;;;;5134091;27;20051;-64
2022/02/14 02:06:56;;;;;;;7.30;2.30;;;;;;;;;;5133959;27;20035;-64
2022/02/14 02:09:23;;;;;;;6.22;1.83;;;;;;;;;;5134187;27;20095;-64
2022/02/14 02:14:34;;;;;;;6.30;2.15;;;;;;;;;;5134175;27;20096;-64
2022/02/14 02:17:00;;;;;;;9.35;2.20;;;;;;;;;;5133688;27;20102;-71
2022/02/14 02:19:26;;;;;;;5.22;2.13;;;;;;;;;;5133927;27;20493;-66
2022/02/14 02:21:52;;;;;;;5.18;2.28;;;;;;;;;;5115150;27;20031;-65
2022/02/14 02:24:19;;;;;;;4.60;1.83;;;;;;;;;;5133075;27;20092;-65
2022/02/14 02:26:46;;;;;;;8.98;2.50;;;;;;;;;;5129504;27;20060;-65
2022/02/14 02:29:14;;;;;;;8.75;2.15;;;;;;;;;;5113154;28;20487;-67
2022/02/14 02:31:40;;;;;;;5.40;2.05;;;;;;;;;;5112838;28;20020;-65
2022/02/14 02:34:06;;;;;;;5.90;1.83;;;;;;;;;;5113046;28;20052;-66
2022/02/14 02:36:32;;;;;;;6.70;2.30;;;;;;;;;;5112970;28;20020;-69
2022/02/14 02:38:58;;;;;;;9.10;2.22;;;;;;;;;;5112541;28;20156;-65
2022/02/14 02:41:24;;;;;;;4.70;2.20;;;;;;;;;;5102938;28;20134;-66
2022/02/14 02:43:50;;;;;;;3.72;1.85;;;;;;;;;;5103117;28;20028;-64
2022/02/14 02:46:16;;;;;;;4.65;1.75;;;;;;;;;;5113223;28;20047;-65
2022/02/14 02:48:42;;;;;;;10.70;2.10;;;;;;;;;;5112939;28;20034;-64
2022/02/14 02:51:08;;;;;;;4.40;1.90;;;;;;;;;;5112655;28;20027;-70
2022/02/14 02:53:34;;;;;;;7.63;2.20;;;;;;;;;;5112656;28;20026;-66
2022/02/14 02:56:01;;;;;;;6.03;1.80;;;;;;;;;;5116209;28;20019;-70
2022/02/14 02:58:27;;;;;;;4.97;2.20;;;;;;;;;;5124996;28;20034;-70
2022/02/14 03:00:53;;;;;;;5.90;2.33;;;;;;;;;;5133667;28;20027;-63
2022/02/14 03:03:19;;;;;;;4.88;1.80;;;;;;;;;;5133381;28;20081;-65
2022/02/14 03:05:45;;;;;;;5.80;2.20;;;;;;;;;;5133692;28;20480;-70
2022/02/14 03:08:11;;;;;;;4.20;1.77;;;;;;;;;;5115493;28;20027;-68
2022/02/14 03:10:37;;;;;;;5.93;2.30;;;;;;;;;;5134055;28;20023;-72
2022/02/14 03:13:03;;;;;;;7.72;2.03;;;;;;;;;;5128250;28;20031;-72
2022/02/14 03:15:29;;;;;;;3.78;1.77;;;;;;;;;;5113404;28;20016;-66
2022/02/14 03:17:56;;;;;;;3.78;2.10;;;;;;;;;;5113260;28;20028;-69
2022/02/14 03:20:23;;;;;;;3.25;2.00;;;;;;;;;;5113463;28;20032;-67
2022/02/14 03:22:48;;;;;;;5.05;1.92;;;;;;;;;;5113231;28;20016;-66
2022/02/14 03:25:14;;;;;;;11.05;1.73;;;;;;;;;;5113016;28;20035;-71
2022/02/14 03:27:40;;;;;;;3.88;1.90;;;;;;;;;;5129939;27;20062;-68
2022/02/14 03:30:07;;;;;;;3.42;1.90;;;;;;;;;;5134645;27;20529;-71
2022/02/14 03:32:36;;;;;;;6.72;1.65;;;;;;;;;;5094836;28;20028;-69
2022/02/14 03:35:02;;;;;;;5.70;1.80;;;;;;;;;;5095135;28;20019;-72
2022/02/14 03:37:28;;;;;;;4.90;1.98;;;;;;;;;;5094908;28;20023;-71
2022/02/14 03:39:54;;;;;;;5.75;1.95;;;;;;;;;;5113090;28;20023;-66
2022/02/14 03:42:20;;;;;;;2.90;1.73;;;;;;;;;;5112857;28;20028;-70
2022/02/14 03:44:47;;;;;;;3.70;1.80;;;;;;;;;;5119921;27;20027;-62
2022/02/14 03:47:13;;;;;;;19.15;2.03;;;;;;;;;;5133828;28;20434;-69
2022/02/14 03:49:38;;;;;;;11.85;1.67;;;;;;;;;;5133831;27;20534;-70
2022/02/14 03:52:05;;;;;;;6.43;1.77;;;;;;;;;;5118683;27;20031;-68
2022/02/14 03:54:30;;;;;;;5.57;2.00;;;;;;;;;;5136897;27;20024;-65
2022/02/14 03:56:56;;;;;;;9.85;2.22;;;;;;;;;;5136804;27;20031;-71
2022/02/14 03:59:22;;;;;;;12.02;2.28;;;;;;;;;;5136905;27;20416;-72
2022/02/14 04:01:48;;;;;;;8.60;1.77;;;;;;;;;;5115059;27;20031;-70
2022/02/14 04:04:14;;;;;;;5.35;1.80;;;;;;;;;;5125353;27;20024;-70
2022/02/14 04:06:40;;;;;;;8.85;1.80;;;;;;;;;;5116398;28;20039;-67
2022/02/14 04:09:06;;;;;;;5.63;1.60;;;;;;;;;;5116464;28;20028;-67
2022/02/14 04:11:32;;;;;;;6.80;1.90;;;;;;;;;;5115806;28;20033;-73
2022/02/14 04:13:58;;;;;;;3.97;1.70;;;;;;;;;;5116367;28;20085;-68
2022/02/14 04:16:24;;;;;;;6.13;1.27;;;;;;;;;;5115981;28;20462;-65
2022/02/14 04:18:50;;;;;;;8.23;1.83;;;;;;;;;;5117137;27;20025;-65
2022/02/14 04:21:16;;;;;;;6.85;1.92;;;;;;;;;;5107226;28;20358;-67
2022/02/14 04:23:42;;;;;;;9.35;1.67;;;;;;;;;;5130107;27;20031;-67
2022/02/14 04:26:08;;;;;;;2.97;1.40;;;;;;;;;;5136141;27;20049;-70
2022/02/14 04:28:34;;;;;;;6.13;1.63;;;;;;;;;;5126951;27;20024;-70
2022/02/14 04:31:00;;;;;;;9.18;1.90;;;;;;;;;;5115582;28;20021;-70
2022/02/14 04:33:26;;;;;;;4.90;1.45;;;;;;;;;;5115700;28;20777;-70
2022/02/14 04:35:52;;;;;;;6.50;1.50;;;;;;;;;;5115839;28;20023;-66
2022/02/14 04:38:18;;;;;;;5.85;1.70;;;;;;;;;;5115846;28;20054;-67
2022/02/14 04:40:44;;;;;;;3.08;1.50;;;;;;;;;;5115607;28;20046;-69
2022/02/14 04:43:10;;;;;;;4.80;1.58;;;;;;;;;;5097373;28;20039;-70
2022/02/14 04:45:36;;;;;;;3.60;1.48;;;;;;;;;;5130150;27;20476;-69
2022/02/14 04:48:02;;;;;;;4.93;1.85;;;;;;;;;;5115254;28;20530;-71
2022/02/14 04:50:28;;;;;;;4.35;1.45;;;;;;;;;;5115197;28;20019;-69
2022/02/14 04:52:54;;;;;;;5.78;1.90;;;;;;;;;;5115327;28;20419;-66
2022/02/14 04:55:20;;;;;;;5.25;1.33;;;;;;;;;;5114990;28;20064;-66
2022/02/14 04:57:46;;;;;;;5.75;1.30;;;;;;;;;;5115268;28;20104;-69
2022/02/14 05:00:14;;;;;;;4.47;1.50;;;;;;;;;;5115154;28;20080;-71
2022/02/14 05:02:39;;;;;;;3.65;1.75;;;;;;;;;;5096493;28;20096;-72
2022/02/14 05:05:06;;;;;;;3.33;1.60;;;;;;;;;;5114698;28;20065;-71
2022/02/14 05:07:32;;;;;;;4.68;1.90;;;;;;;;;;5114946;28;20035;-72
2022/02/14 05:09:58;;;;;;;8.63;1.80;;;;;;;;;;5096782;28;20519;-71
2022/02/14 05:12:24;;;;;;;4.75;1.42;;;;;;;;;;5111826;27;20033;-66
2022/02/14 05:14:50;;;;;;;2.00;1.40;;;;;;;;;;5127448;27;20484;-68
2022/02/14 05:17:18;;;;;;;3.30;1.48;;;;;;;;;;5116819;27;20052;-71
2022/02/14 05:19:44;;;;;;;2.97;1.30;;;;;;;;;;5135680;27;20019;-66
2022/02/14 05:22:13;;;;;;;3.97;1.50;;;;;;;;;;5135750;27;20510;-70
2022/02/14 05:24:39;;;;;;;3.65;1.38;;;;;;;;;;5135485;27;20026;-71
2022/02/14 05:27:05;;;;;;;4.43;1.50;;;;;;;;;;5116371;27;20046;-71
2022/02/14 05:29:31;;;;;;;4.25;1.38;;;;;;;;;;5134485;27;20070;-65
2022/02/14 05:31:58;;;;;;;2.45;1.40;;;;;;;;;;5126699;27;20031;-65
2022/02/14 05:34:24;;;;;;;3.30;1.45;;;;;;;;;;5134913;27;20107;-68
2022/02/14 05:36:50;;;;;;;2.75;1.20;;;;;;;;;;5134965;27;20029;-70
2022/02/14 05:39:16;;;;;;;10.55;1.40;;;;;;;;;;5116427;27;20019;-73
2022/02/14 05:41:42;;;;;;;3.78;1.20;;;;;;;;;;5134659;27;20034;-69
2022/02/14 05:44:08;;;;;;;3.97;1.50;;;;;;;;;;5099158;27;20019;-73
2022/02/14 05:46:34;;;;;;;2.78;1.35;;;;;;;;;;5134690;27;20084;-65
2022/02/14 05:49:00;;;;;;;3.42;1.40;;;;;;;;;;5134828;27;20027;-64
2022/02/14 05:51:26;;;;;;;6.40;1.48;;;;;;;;;;5134427;27;20031;-69
2022/02/14 05:53:52;;;;;;;6.65;1.42;;;;;;;;;;5134484;27;20015;-69
2022/02/14 05:56:18;;;;;;;5.82;1.80;;;;;;;;;;5134156;27;20023;-69
2022/02/14 05:58:44;;;;;;;3.80;1.40;;;;;;;;;;5134325;27;20015;-71
2022/02/14 06:01:10;;;;;;;4.05;1.50;;;;;;;;;;5134516;27;20394;-69
2022/02/14 06:03:36;;;;;;;3.22;1.40;;;;;;;;;;5134612;27;20019;-65
2022/02/14 06:06:03;;;;;;;4.50;1.58;;;;;;;;;;5115713;27;20031;-65
2022/02/14 06:08:29;;;;;;;2.78;1.48;;;;;;;;;;5115549;27;20136;-65
2022/02/14 06:10:55;;;;;;;3.83;1.20;;;;;;;;;;5133943;27;20030;-68
2022/02/14 06:13:21;;;;;;;5.35;1.55;;;;;;;;;;5133827;27;20023;-69
2022/02/14 06:15:47;;;;;;;4.65;1.40;;;;;;;;;;5115709;27;20031;-71
2022/02/14 06:18:14;;;;;;;3.00;1.13;;;;;;;;;;5134016;27;20100;-67
2022/02/14 06:20:40;;;;;;;2.22;1.33;;;;;;;;;;5132637;27;20082;-66
2022/02/14 06:23:07;;;;;;;3.22;1.45;;;;;;;;;;5134183;27;20493;-68
2022/02/14 06:25:33;;;;;;;5.88;1.30;;;;;;;;;;5112748;28;20489;-66
2022/02/14 06:27:59;;;;;;;6.28;1.20;;;;;;;;;;5125711;27;20141;-68
2022/02/14 06:30:25;;;;;;;4.05;1.30;;;;;;;;;;5133967;27;20102;-67
2022/02/14 06:32:51;;;;;;;4.03;1.33;;;;;;;;;;5134141;27;20026;-75
2022/02/14 06:35:17;;;;;;;1.75;1.10;;;;;;;;;;5133668;27;20027;-67
2022/02/14 06:37:43;;;;;;;4.10;1.20;;;;;;;;;;5121020;28;20077;-67
2022/02/14 06:40:10;;;;;;;2.58;1.00;;;;;;;;;;5113800;28;20024;-67
2022/02/14 06:42:36;;;;;;;3.35;1.20;;;;;;;;;;5108446;28;20027;-64
2022/02/14 06:45:03;;;;;;;4.13;1.38;;;;;;;;;;5113995;28;20035;-67
2022/02/14 06:47:29;;;;;;;13.95;1.42;;;;;;;;;;5117065;28;20111;-68
2022/02/14 06:49:55;;;;;;;4.75;1.10;;;;;;;;;;5119325;28;20061;-69
2022/02/14 06:52:21;;;;;;;6.85;1.55;;;;;;;;;;5110527;28;20069;-68
2022/02/14 06:54:47;;;;;;;79.97;2.47;;;;;;;;;;5102733;28;20486;-75
2022/02/14 06:57:13;;;;;;;32.65;1.83;;;;;;;;;;5115242;28;20063;-76
2022/02/14 06:59:39;;;;;;;23.42;1.73;;;;;;;;;;5106044;28;20077;-73
2022/02/14 07:02:05;;;;;;;13.40;1.45;;;;;;;;;;5113265;28;20027;-71
2022/02/14 07:04:31;;;;;;;15.18;1.40;;;;;;;;;;5114153;28;20036;-71
2022/02/14 07:06:58;;;;;;;9.63;1.10;;;;;;;;;;5117220;28;20122;-71
2022/02/14 07:09:24;;;;;;;11.40;1.58;;;;;;;;;;5113534;28;20073;-77
2022/02/14 07:11:50;;;;;;;11.75;1.20;;;;;;;;;;5112830;28;20031;-67
2022/02/14 07:14:16;;;;;;;8.65;1.35;;;;;;;;;;5113556;28;20405;-74
2022/02/14 07:16:43;;;;;;;18.48;1.40;;;;;;;;;;5095113;28;20028;-70
2022/02/14 07:19:09;;;;;;;7.25;1.10;;;;;;;;;;5113841;28;20447;-76
2022/02/14 07:21:35;;;;;;;11.00;1.10;;;;;;;;;;5113313;28;20023;-89
2022/02/14 07:24:02;;;;;;;2.70;1.00;;;;;;;;;;5112613;28;20081;-81
2022/02/14 07:26:28;;;;;;;9.75;1.40;;;;;;;;;;5123980;27;20039;-71
2022/02/14 07:28:54;;;;;;;4.10;1.20;;;;;;;;;;5138525;27;20027;-67
2022/02/14 07:31:21;;;;;;;10.60;1.13;;;;;;;;;;5138356;27;20031;-69
2022/02/14 07:33:47;;;;;;;7.63;1.05;;;;;;;;;;5139201;27;20027;-75
2022/02/14 07:36:13;;;;;;;8.18;1.67;;;;;;;;;;5138916;27;20046;-66
2022/02/14 07:38:39;;;;;;;11.82;1.20;;;;;;;;;;5137705;27;20377;-83
2022/02/14 07:41:05;;;;;;;7.93;1.20;;;;;;;;;;5136942;27;20031;-81
2022/02/14 07:43:32;;;;;;;5.85;1.20;;;;;;;;;;5112045;27;20027;-86
2022/02/14 07:45:58;;;;;;;5.47;1.02;;;;;;;;;;5121510;27;20535;-80
2022/02/14 07:48:24;;;;;;;5.68;1.38;;;;;;;;;;5138310;27;20187;-78
2022/02/14 07:50:50;;;;;;;5.05;1.25;;;;;;;;;;5130125;27;20092;-73
2022/02/14 07:53:18;;;;;;;10.18;1.25;;;;;;;;;;5137429;27;20015;-67
2022/02/14 07:55:44;;;;;;;8.23;1.33;;;;;;;;;;5137656;27;20098;-76
2022/02/14 07:58:10;;;;;;;9.05;1.13;;;;;;;;;;5137548;27;20045;-83
2022/02/14 08:00:36;;;;;;;8.52;1.17;;;;;;;;;;5126005;27;20015;-72
2022/02/14 08:03:02;;;;;;;7.72;1.25;;;;;;;;;;5124942;27;20429;-87
2022/02/14 08:05:28;;;;;;;3.85;1.45;;;;;;;;;;5108190;28;20028;-72
2022/02/14 08:07:54;;;;;;;6.45;1.50;;;;;;;;;;5125476;27;20035;-70
2022/02/14 08:10:20;;;;;;;7.15;1.48;;;;;;;;;;5123208;27;20024;-75
2022/02/14 08:12:46;;;;;;;7.18;1.38;;;;;;;;;;5123730;27;20034;-73
2022/02/14 08:15:12;;;;;;;7.95;1.70;;;;;;;;;;5128710;27;20019;-74
2022/02/14 08:17:38;;;;;;;6.25;1.40;;;;;;;;;;5130821;27;20522;-82
2022/02/14 08:20:05;;;;;;;8.45;1.40;;;;;;;;;;5127545;27;20015;-86
2022/02/14 08:22:39;;;;;;;5.80;1.58;;;;;;;;;;5124705;27;20050;-84
2022/02/14 08:25:06;;;;;;;7.57;1.80;;;;;;;;;;5110773;27;20023;-65
2022/02/14 08:27:32;;;;;;;9.98;1.60;;;;;;;;;;5094429;28;20058;-70
2022/02/14 08:29:59;;;;;;;9.25;1.60;;;;;;;;;;5096073;28;20099;-66
2022/02/14 08:32:25;;;;;;;9.15;2.33;;;;;;;;;;5096551;28;20023;-73
2022/02/14 08:34:51;;;;;;;7.93;1.70;;;;;;;;;;5094811;28;20031;-86
2022/02/14 08:37:17;;;;;;;6.82;1.67;;;;;;;;;;5096269;28;20475;-78
2022/02/14 08:39:43;;;;;;;6.78;1.50;;;;;;;;;;5096314;28;20444;-87
2022/02/14 08:42:09;;;;;;;6.72;1.75;;;;;;;;;;5094814;28;20107;-64
2022/02/14 08:44:35;;;;;;;12.48;2.10;;;;;;;;;;5093959;28;20107;-66
2022/02/14 08:47:01;;;;;;;7.18;1.55;;;;;;;;;;5093818;28;20070;-69
2022/02/14 08:49:29;;;;;;;5.90;1.70;;;;;;;;;;5095588;28;20028;-65
2022/02/14 08:51:55;;;;;;;5.78;1.67;;;;;;;;;;5094941;28;20376;-79
2022/02/14 08:54:21;;;;;;;9.48;2.00;;;;;;;;;;5094918;28;20026;-74
2022/02/14 08:56:48;;;;;;;5.40;1.70;;;;;;;;;;5095274;28;20040;-84
2022/02/14 08:59:19;;;;;;;7.78;1.60;;;;;;;;;;5095284;28;20096;-85
2022/02/14 09:01:48;;;;;;;6.85;2.15;;;;;;;;;;5091908;28;20073;-65
2022/02/14 09:04:15;;;;;;;6.07;1.70;;;;;;;;;;5091289;28;20033;-69
2022/02/14 09:06:41;;;;;;;4.03;1.48;;;;;;;;;;5095649;28;20040;-75
2022/02/14 09:09:07;;;;;;;4.60;1.50;;;;;;;;;;5097558;28;20468;-81
2022/02/14 09:11:33;;;;;;;3.45;1.30;;;;;;;;;;5099818;28;20042;-87
2022/02/14 09:13:59;;;;;;;9.32;2.00;;;;;;;;;;5094727;28;20111;-78
2022/02/14 09:16:25;;;;;;;7.60;1.95;;;;;;;;;;5094546;28;20053;-72
2022/02/14 09:18:51;;;;;;;4.63;1.33;;;;;;;;;;5095317;28;20126;-83
2022/02/14 09:21:17;;;;;;;6.85;1.20;;;;;;;;;;5094065;28;20042;-66
2022/02/14 09:23:43;;;;;;;3.13;1.30;;;;;;;;;;5094052;28;20028;-65
2022/02/14 09:26:09;;;;;;;5.28;1.40;;;;;;;;;;5093684;28;20043;-66
2022/02/14 09:28:35;;;;;;;3.38;1.35;;;;;;;;;;5093594;28;20383;-72
2022/02/14 09:31:01;;;;;;;5.68;1.50;;;;;;;;;;5093435;28;20027;-70
2022/02/14 09:33:27;;;;;;;8.02;1.20;;;;;;;;;;5093561;28;20032;-82
2022/02/14 09:35:53;;;;;;;6.43;1.50;;;;;;;;;;5094202;28;20075;-85
2022/02/14 09:38:20;;;;;;;4.13;1.50;;;;;;;;;;5076093;28;20020;-83
2022/02/14 09:40:46;;;;;;;7.53;1.50;;;;;;;;;;5094173;28;20097;-65
2022/02/14 09:43:13;;;;;;;5.20;1.42;;;;;;;;;;5094184;28;20027;-71
2022/02/14 09:45:39;;;;;;;8.27;1.35;;;;;;;;;;5094423;28;20031;-71
2022/02/14 09:48:07;;;;;;;3.58;1.40;;;;;;;;;;5093376;28;20043;-78
2022/02/14 09:50:34;;;;;;;5.90;1.42;;;;;;;;;;5093997;28;20146;-81
2022/02/14 09:53:00;;;;;;;2.78;1.13;;;;;;;;;;5093716;28;20028;-82
2022/02/14 09:55:26;;;;;;;5.00;1.48;;;;;;;;;;5075775;28;20028;-78
2022/02/14 09:57:53;;;;;;;4.60;1.35;;;;;;;;;;5093784;28;20040;-82
2022/02/14 10:00:19;;;;;;;4.30;1.40;;;;;;;;;;5093297;28;20371;-72
2022/02/14 10:02:45;;;;;;;5.72;1.45;;;;;;;;;;5093545;28;20032;-67
2022/02/14 10:05:13;;;;;;;4.20;1.40;;;;;;;;;;5094081;28;20016;-78
2022/02/14 10:07:45;;;;;;;4.88;1.10;;;;;;;;;;5093689;28;20118;-76
2022/02/14 10:10:12;;;;;;;7.30;1.70;;;;;;;;;;5093679;28;20047;-77
2022/02/14 10:12:40;;;;;;;3.72;1.20;;;;;;;;;;5094678;28;20062;-75
2022/02/14 10:15:06;;;;;;;4.93;1.33;;;;;;;;;;5072182;28;20020;-75
2022/02/14 10:17:37;;;;;;;4.13;1.23;;;;;;;;;;5077171;28;20031;-72
2022/02/14 10:20:03;;;;;;;5.78;1.17;;;;;;;;;;5093436;28;20016;-73
2022/02/14 10:22:30;;;;;;;3.90;1.48;;;;;;;;;;5093421;28;20024;-73
2022/02/14 10:24:55;;;;;;;14.00;1.42;;;;;;;;;;5094327;28;20065;-66
2022/02/14 10:27:32;;;;;;;4.88;1.23;;;;;;;;;;5098901;28;20068;-77
2022/02/14 10:30:06;;;;;;;7.18;1.30;;;;;;;;;;5093810;28;20047;-69
2022/02/14 10:32:32;;;;;;;3.63;1.25;;;;;;;;;;5089191;28;20070;-76
2022/02/14 10:34:59;;;;;;;7.47;1.40;;;;;;;;;;5094173;28;20047;-73
2022/02/14 10:37:41;;;;;;;6.53;1.30;;;;;;;;;;5093308;28;20054;-78
2022/02/14 10:40:08;;;;;;;4.30;1.20;;;;;;;;;;5094301;28;20028;-80
2022/02/14 10:42:35;;;;;;;4.90;1.48;;;;;;;;;;5110258;28;20371;-68
2022/02/14 10:45:08;;;;;;;14.35;1.80;;;;;;;;;;5093958;28;20027;-75
2022/02/14 10:47:39;;;;;;;6.10;1.52;;;;;;;;;;5094049;28;20028;-72
2022/02/14 10:50:05;;;;;;;6.32;1.50;;;;;;;;;;5093547;28;20348;-79
2022/02/14 10:52:38;;;;;;;5.57;1.30;;;;;;;;;;5093169;28;20479;-73
2022/02/14 10:55:05;;;;;;;6.00;1.63;;;;;;;;;;5087740;28;20074;-67
2022/02/14 10:57:32;;;;;;;6.55;1.40;;;;;;;;;;5094042;28;20028;-72
2022/02/14 11:00:03;;;;;;;4.68;1.33;;;;;;;;;;5081878;28;20435;-81
2022/02/14 11:02:30;;;;;;;9.00;1.60;;;;;;;;;;5098554;28;20676;-79
2022/02/14 11:04:56;;;;;;;5.55;1.67;;;;;;;;;;5097059;28;20059;-80
2022/02/14 11:07:22;;;;;;;7.07;1.55;;;;;;;;;;5089646;28;20036;-79
2022/02/14 11:09:50;;;;;;;7.80;1.35;;;;;;;;;;5099269;28;20082;-78
2022/02/14 11:12:18;;;;;;;8.13;1.52;;;;;;;;;;5085133;28;20487;-70
2022/02/14 11:14:46;;;;;;;9.18;2.15;;;;;;;;;;5096991;28;20039;-79
2022/02/14 11:17:13;;;;;;;6.75;1.65;;;;;;;;;;5097197;28;20441;-74
2022/02/14 11:19:40;;;;;;;7.22;2.00;;;;;;;;;;5097188;28;20486;-77
2022/02/14 11:22:06;;;;;;;6.20;1.52;;;;;;;;;;5097800;28;20015;-78
2022/02/14 11:24:36;;;;;;;5.80;1.70;;;;;;;;;;5096948;28;20020;-70
2022/02/14 11:27:05;;;;;;;4.90;1.10;;;;;;;;;;5085915;28;20376;-71
2022/02/14 11:29:50;;;;;;;7.03;1.55;;;;;;;;;;5094139;28;20157;-75
2022/02/14 11:32:16;;;;;;;7.05;1.60;;;;;;;;;;5095234;28;20012;-74
2022/02/14 11:34:51;;;;;;;6.53;1.80;;;;;;;;;;5097126;28;20024;-76
2022/02/14 11:37:17;;;;;;;7.90;1.77;;;;;;;;;;5098610;28;20020;-74
2022/02/14 11:39:43;;;;;;;9.57;1.90;;;;;;;;;;5095930;28;20090;-71
2022/02/14 11:42:09;;;;;;;9.65;1.52;;;;;;;;;;5095190;28;20028;-68
2022/02/14 11:44:35;;;;;;;10.00;1.60;;;;;;;;;;5094188;28;20412;-73
2022/02/14 11:47:03;;;;;;;8.75;1.80;;;;;;;;;;5097187;28;20050;-77
2022/02/14 11:49:38;;;;;;;9.40;1.58;;;;;;;;;;5096181;28;20359;-76
2022/02/14 11:52:06;;;;;;;6.07;1.60;;;;;;;;;;5095783;28;20028;-73
2022/02/14 11:54:36;;;;;;;6.05;1.52;;;;;;;;;;5078034;28;20077;-70
2022/02/14 11:57:17;;;;;;;4.95;1.42;;;;;;;;;;5077943;28;20387;-71
2022/02/14 11:59:44;;;;;;;5.57;1.48;;;;;;;;;;5095985;28;20471;-72
2022/02/14 12:02:11;;;;;;;7.15;1.60;;;;;;;;;;5089992;28;20030;-71
2022/02/14 12:04:41;;;;;;;8.98;1.42;;;;;;;;;;5101020;28;20028;-76
2022/02/14 12:07:23;;;;;;;6.13;1.50;;;;;;;;;;5078290;28;20426;-74
2022/02/14 12:09:58;;;;;;;5.90;1.42;;;;;;;;;;5093143;28;20028;-67
2022/02/14 12:12:42;;;;;;;4.95;1.20;;;;;;;;;;5095447;28;20016;-75
2022/02/14 12:20:41;;;;;;;8.52;1.40;;;;;;;;;;5094733;28;20043;-66
2022/02/14 12:23:07;;;;;;;7.45;1.48;;;;;;;;;;5092169;28;20020;-65
2022/02/14 12:25:37;;;;;;;7.32;1.73;;;;;;;;;;5095101;28;20020;-65
2022/02/14 12:28:07;;;;;;;9.02;1.58;;;;;;;;;;5096561;28;20059;-71
2022/02/14 12:30:33;;;;;;;8.50;1.33;;;;;;;;;;5115515;28;20027;-66
2022/02/14 12:33:06;;;;;;;9.88;1.60;;;;;;;;;;5114388;28;20020;-74
2022/02/14 12:35:33;;;;;;;7.40;1.42;;;;;;;;;;5112146;27;20030;-75
2022/02/14 12:37:59;;;;;;;6.35;1.20;;;;;;;;;;5115931;27;20463;-71
2022/02/14 12:40:25;;;;;;;8.77;1.45;;;;;;;;;;5093177;28;20028;-66
2022/02/14 12:43:00;;;;;;;7.95;1.30;;;;;;;;;;5112161;28;20035;-67
2022/02/14 12:45:29;;;;;;;6.93;1.30;;;;;;;;;;5114834;28;20024;-71
2022/02/14 12:47:55;;;;;;;4.70;1.10;;;;;;;;;;5115053;28;20035;-71
2022/02/14 12:50:21;;;;;;;3.58;1.20;;;;;;;;;;5113765;28;20513;-67
2022/02/14 12:52:48;;;;;;;5.50;1.38;;;;;;;;;;5120228;27;20123;-67
2022/02/14 12:55:15;;;;;;;8.48;1.35;;;;;;;;;;5115211;28;20015;-71
2022/02/14 12:57:45;;;;;;;5.22;1.00;;;;;;;;;;5116371;27;20530;-74
2022/02/14 13:00:23;;;;;;;3.78;0.95;;;;;;;;;;5113059;28;20416;-71
2022/02/14 13:03:03;;;;;;;6.90;1.35;;;;;;;;;;5111612;28;20027;-74
2022/02/14 13:05:31;;;;;;;6.47;1.20;;;;;;;;;;5114331;28;20099;-74
2022/02/14 13:07:57;;;;;;;10.57;1.45;;;;;;;;;;5114799;28;20043;-74
2022/02/14 13:10:24;;;;;;;3.67;1.00;;;;;;;;;;5099006;28;20020;-75
2022/02/14 13:13:03;;;;;;;17.42;1.38;;;;;;;;;;5096634;28;20024;-71
2022/02/14 13:15:30;;;;;;;11.43;1.17;;;;;;;;;;5115225;28;20015;-72
2022/02/14 13:17:59;;;;;;;7.32;1.13;;;;;;;;;;5115007;28;20540;-72
2022/02/14 13:20:25;;;;;;;14.00;1.20;;;;;;;;;;5114678;28;20020;-69
2022/02/14 13:22:51;;;;;;;9.43;1.20;;;;;;;;;;5113567;28;20070;-67
2022/02/14 13:25:19;;;;;;;11.88;1.20;;;;;;;;;;5113710;28;20069;-71
2022/02/14 13:27:49;;;;;;;13.35;1.20;;;;;;;;;;5120728;27;20502;-71
2022/02/14 13:30:18;;;;;;;7.60;1.27;;;;;;;;;;5118185;27;20019;-67
2022/02/14 13:32:45;;;;;;;4.15;1.20;;;;;;;;;;5113922;28;20100;-68
2022/02/14 13:35:18;;;;;;;8.20;1.33;;;;;;;;;;5114351;28;20054;-67
2022/02/14 13:37:46;;;;;;;4.15;1.20;;;;;;;;;;5113703;28;20057;-69
2022/02/14 13:40:26;;;;;;;6.28;1.45;;;;;;;;;;5114389;28;20055;-67
2022/02/14 13:42:53;;;;;;;9.32;1.23;;;;;;;;;;5113220;28;20031;-69
2022/02/14 13:45:22;;;;;;;7.30;1.27;;;;;;;;;;5114228;28;20125;-68
2022/02/14 13:47:49;;;;;;;4.68;1.25;;;;;;;;;;5096166;28;20512;-67
2022/02/14 13:50:26;;;;;;;9.20;1.10;;;;;;;;;;5075394;28;20020;-69
2022/02/14 13:52:52;;;;;;;6.25;1.30;;;;;;;;;;5093597;28;20058;-68
2022/02/14 13:55:22;;;;;;;4.45;1.38;;;;;;;;;;5093562;28;20035;-71
2022/02/14 13:57:48;;;;;;;8.13;1.30;;;;;;;;;;5106544;28;20559;-72
2022/02/14 14:00:30;;;;;;;4.35;0.95;;;;;;;;;;5114061;28;20080;-67
2022/02/14 14:03:04;;;;;;;6.20;1.40;;;;;;;;;;5113066;28;20118;-67
2022/02/14 14:05:40;;;;;;;3.45;1.10;;;;;;;;;;5095963;28;20389;-68
2022/02/14 14:08:07;;;;;;;4.40;1.02;;;;;;;;;;5106126;28;20356;-70
2022/02/14 14:10:37;;;;;;;5.85;0.95;;;;;;;;;;5104249;28;20114;-70
2022/02/14 14:13:03;;;;;;;3.85;1.10;;;;;;;;;;5098856;28;20020;-67
2022/02/14 14:15:29;;;;;;;4.55;1.40;;;;;;;;;;5104048;28;20467;-67
2022/02/14 14:17:55;;;;;;;4.95;1.00;;;;;;;;;;5085335;28;20494;-68
2022/02/14 14:20:25;;;;;;;5.90;1.35;;;;;;;;;;5105066;28;20062;-68
2022/02/14 14:22:52;;;;;;;4.32;1.38;;;;;;;;;;5106295;28;20035;-76
2022/02/14 14:25:19;;;;;;;3.97;0.90;;;;;;;;;;5102566;28;20020;-74
2022/02/14 14:27:47;;;;;;;5.25;1.08;;;;;;;;;;5105496;28;20059;-68
2022/02/14 14:30:13;;;;;;;7.68;1.02;;;;;;;;;;5106224;28;20022;-69
2022/02/14 14:32:39;;;;;;;4.57;1.00;;;;;;;;;;5102998;28;20132;-71
2022/02/14 14:35:05;;;;;;;4.88;1.02;;;;;;;;;;5061634;28;20086;-72
2022/02/14 14:37:31;;;;;;;3.85;0.90;;;;;;;;;;5104826;28;20458;-71
2022/02/14 14:39:58;;;;;;;5.70;0.82;;;;;;;;;;5076124;28;20380;-68
2022/02/14 14:42:26;;;;;;;5.93;1.63;;;;;;;;;;5083710;28;20019;-73
2022/02/14 14:44:52;;;;;;;3.17;0.90;;;;;;;;;;5098225;28;20074;-72
2022/02/14 14:47:18;;;;;;;9.27;1.45;;;;;;;;;;5102472;28;20043;-71
2022/02/14 14:49:44;;;;;;;6.18;0.90;;;;;;;;;;5107097;28;20024;-70